sensor_id;sensor_type;location;lat;lon;timestamp;temperature;humidity
20546;DHT22;10431;50.228;9.112;2023-06-14T00:00:59;22.80;71.20
20546;DHT22;10431;50.228;9.112;2023-06-14T00:03:25;22.80;71.20
20546;DHT22;10431;50.228;9.112;2023-06-14T00:05:52;22.80;71.00
20546;DHT22;10431;50.228;9.112;2023-06-14T00:08:18;22.80;71.00
20546;DHT22;10431;50.228;9.112;2023-06-14T00:10:45;22.80;71.00
20546;DHT22;10431;50.228;9.112;2023-06-14T00:13:11;22.80;71.00
20546;DHT22;10431;50.228;9.112;2023-06-14T00:15:38;22.80;71.00
20546;DHT22;10431;50.228;9.112;2023-06-14T00:18:04;22.80;70.90
20546;DHT22;10431;50.228;9.112;2023-06-14T00:20:32;22.80;70.90
20546;DHT22;10431;50.228;9.112;2023-06-14T00:23:02;22.80;70.90
20546;DHT22;10431;50.228;9.112;2023-06-14T00:25:28;22.80;70.90
20546;DHT22;10431;50.228;9.112;2023-06-14T00:27:55;22.80;71.00
20546;DHT22;10431;50.228;9.112;2023-06-14T00:30:21;22.80;71.00
20546;DHT22;10431;50.228;9.112;2023-06-14T00:32:48;22.80;71.00
20546;DHT22;10431;50.228;9.112;2023-06-14T00:35:14;22.70;71.00
20546;DHT22;10431;50.228;9.112;2023-06-14T00:37:41;22.70;71.00
20546;DHT22;10431;50.228;9.112;2023-06-14T00:40:08;22.70;71.10
20546;DHT22;10431;50.228;9.112;2023-06-14T00:42:34;22.80;71.30
20546;DHT22;10431;50.228;9.112;2023-06-14T00:45:00;22.70;71.20
20546;DHT22;10431;50.228;9.112;2023-06-14T00:47:27;22.80;71.50
20546;DHT22;10431;50.228;9.112;2023-06-14T00:49:53;22.70;71.50
20546;DHT22;10431;50.228;9.112;2023-06-14T00:52:21;22.70;71.50
20546;DHT22;10431;50.228;9.112;2023-06-14T00:54:51;22.70;71.70
20546;DHT22;10431;50.228;9.112;2023-06-14T00:57:17;22.70;71.70
20546;DHT22;10431;50.228;9.112;2023-06-14T00:59:47;22.70;71.70
20546;DHT22;10431;50.228;9.112;2023-06-14T01:02:13;22.70;72.60
20546;DHT22;10431;50.228;9.112;2023-06-14T01:04:45;22.70;71.90
20546;DHT22;10431;50.228;9.112;2023-06-14T01:12:34;22.70;72.00
20546;DHT22;10431;50.228;9.112;2023-06-14T01:15:02;22.70;72.00
20546;DHT22;10431;50.228;9.112;2023-06-14T01:17:29;22.60;71.90
20546;DHT22;10431;50.228;9.112;2023-06-14T01:20:04;22.70;71.90
20546;DHT22;10431;50.228;9.112;2023-06-14T01:22:36;22.70;72.00
20546;DHT22;10431;50.228;9.112;2023-06-14T01:25:02;22.70;72.00
20546;DHT22;10431;50.228;9.112;2023-06-14T01:27:29;22.60;71.90
20546;DHT22;10431;50.228;9.112;2023-06-14T01:29:55;22.60;72.00
20546;DHT22;10431;50.228;9.112;2023-06-14T01:32:27;22.60;72.00
20546;DHT22;10431;50.228;9.112;2023-06-14T01:34:54;22.60;72.80
20546;DHT22;10431;50.228;9.112;2023-06-14T01:37:21;22.60;72.10
20546;DHT22;10431;50.228;9.112;2023-06-14T01:39:48;22.60;72.10
20546;DHT22;10431;50.228;9.112;2023-06-14T01:42:19;22.60;72.10
20546;DHT22;10431;50.228;9.112;2023-06-14T01:44:47;22.60;72.10
20546;DHT22;10431;50.228;9.112;2023-06-14T01:47:14;22.60;72.10
20546;DHT22;10431;50.228;9.112;2023-06-14T01:49:41;22.60;72.20
20546;DHT22;10431;50.228;9.112;2023-06-14T01:52:08;22.60;72.10
20546;DHT22;10431;50.228;9.112;2023-06-14T01:54:36;22.60;72.20
20546;DHT22;10431;50.228;9.112;2023-06-14T01:57:08;22.50;72.10
20546;DHT22;10431;50.228;9.112;2023-06-14T01:59:34;22.50;72.10
20546;DHT22;10431;50.228;9.112;2023-06-14T02:02:02;22.60;72.10
20546;DHT22;10431;50.228;9.112;2023-06-14T02:04:31;22.50;72.00
20546;DHT22;10431;50.228;9.112;2023-06-14T02:06:57;22.50;71.90
20546;DHT22;10431;50.228;9.112;2023-06-14T02:09:23;22.50;71.90
20546;DHT22;10431;50.228;9.112;2023-06-14T02:11:50;22.50;71.70
20546;DHT22;10431;50.228;9.112;2023-06-14T02:14:16;22.50;71.70
20546;DHT22;10431;50.228;9.112;2023-06-14T02:16:43;22.50;71.70
20546;DHT22;10431;50.228;9.112;2023-06-14T02:19:16;22.50;71.60
20546;DHT22;10431;50.228;9.112;2023-06-14T02:21:42;22.50;71.60
20546;DHT22;10431;50.228;9.112;2023-06-14T02:24:09;22.50;71.50
20546;DHT22;10431;50.228;9.112;2023-06-14T02:26:36;22.50;71.50
20546;DHT22;10431;50.228;9.112;2023-06-14T02:29:05;22.50;71.40
20546;DHT22;10431;50.228;9.112;2023-06-14T02:31:32;22.40;71.30
20546;DHT22;10431;50.228;9.112;2023-06-14T02:33:58;22.40;71.20
20546;DHT22;10431;50.228;9.112;2023-06-14T02:36:25;22.40;71.20
20546;DHT22;10431;50.228;9.112;2023-06-14T02:38:51;22.40;71.30
20546;DHT22;10431;50.228;9.112;2023-06-14T02:41:18;22.40;71.20
20546;DHT22;10431;50.228;9.112;2023-06-14T02:43:44;22.40;71.20
20546;DHT22;10431;50.228;9.112;2023-06-14T02:46:11;22.40;71.40
20546;DHT22;10431;50.228;9.112;2023-06-14T02:48:37;22.40;71.30
20546;DHT22;10431;50.228;9.112;2023-06-14T02:51:03;22.40;71.40
20546;DHT22;10431;50.228;9.112;2023-06-14T02:53:29;22.40;71.40
20546;DHT22;10431;50.228;9.112;2023-06-14T02:55:55;22.40;71.30
20546;DHT22;10431;50.228;9.112;2023-06-14T02:58:22;22.40;71.40
20546;DHT22;10431;50.228;9.112;2023-06-14T03:00:51;22.40;71.40
20546;DHT22;10431;50.228;9.112;2023-06-14T03:03:18;22.40;71.30
20546;DHT22;10431;50.228;9.112;2023-06-14T03:05:52;22.40;71.10
20546;DHT22;10431;50.228;9.112;2023-06-14T03:08:23;22.30;71.00
20546;DHT22;10431;50.228;9.112;2023-06-14T03:10:53;22.30;71.00
20546;DHT22;10431;50.228;9.112;2023-06-14T03:13:22;22.30;70.50
20546;DHT22;10431;50.228;9.112;2023-06-14T03:15:50;22.30;70.70
20546;DHT22;10431;50.228;9.112;2023-06-14T03:18:17;22.30;70.60
20546;DHT22;10431;50.228;9.112;2023-06-14T03:20:43;22.30;70.60
20546;DHT22;10431;50.228;9.112;2023-06-14T03:23:12;22.30;70.60
20546;DHT22;10431;50.228;9.112;2023-06-14T03:25:39;22.30;70.50
20546;DHT22;10431;50.228;9.112;2023-06-14T03:28:09;22.30;70.60
20546;DHT22;10431;50.228;9.112;2023-06-14T03:30:36;22.30;70.50
20546;DHT22;10431;50.228;9.112;2023-06-14T03:33:02;22.30;70.50
20546;DHT22;10431;50.228;9.112;2023-06-14T03:35:29;22.30;70.50
20546;DHT22;10431;50.228;9.112;2023-06-14T03:37:55;22.30;70.40
20546;DHT22;10431;50.228;9.112;2023-06-14T03:40:22;22.30;70.40
20546;DHT22;10431;50.228;9.112;2023-06-14T03:42:56;22.20;70.20
20546;DHT22;10431;50.228;9.112;2023-06-14T03:45:22;22.20;70.30
20546;DHT22;10431;50.228;9.112;2023-06-14T03:47:49;22.20;70.40
20546;DHT22;10431;50.228;9.112;2023-06-14T03:50:17;22.10;70.20
20546;DHT22;10431;50.228;9.112;2023-06-14T03:52:44;22.20;70.10
20546;DHT22;10431;50.228;9.112;2023-06-14T03:55:11;22.10;70.10
20546;DHT22;10431;50.228;9.112;2023-06-14T03:57:40;22.10;70.20
20546;DHT22;10431;50.228;9.112;2023-06-14T04:00:10;22.10;70.10
20546;DHT22;10431;50.228;9.112;2023-06-14T04:02:41;22.20;70.30
20546;DHT22;10431;50.228;9.112;2023-06-14T04:05:09;22.10;70.40
20546;DHT22;10431;50.228;9.112;2023-06-14T04:07:38;22.20;70.40
20546;DHT22;10431;50.228;9.112;2023-06-14T04:10:07;22.20;70.50
20546;DHT22;10431;50.228;9.112;2023-06-14T04:12:34;22.10;70.50
20546;DHT22;10431;50.228;9.112;2023-06-14T04:15:00;22.10;70.60
20546;DHT22;10431;50.228;9.112;2023-06-14T04:17:30;22.20;71.40
20546;DHT22;10431;50.228;9.112;2023-06-14T04:19:59;22.10;70.60
20546;DHT22;10431;50.228;9.112;2023-06-14T04:22:26;22.10;70.60
20546;DHT22;10431;50.228;9.112;2023-06-14T04:24:57;22.10;70.60
20546;DHT22;10431;50.228;9.112;2023-06-14T04:27:24;22.00;70.40
20546;DHT22;10431;50.228;9.112;2023-06-14T04:29:52;22.00;70.50
20546;DHT22;10431;50.228;9.112;2023-06-14T04:32:24;22.00;70.60
20546;DHT22;10431;50.228;9.112;2023-06-14T04:34:56;21.80;70.30
20546;DHT22;10431;50.228;9.112;2023-06-14T04:37:24;21.40;70.90
20546;DHT22;10431;50.228;9.112;2023-06-14T04:39:50;21.00;71.70
20546;DHT22;10431;50.228;9.112;2023-06-14T04:42:17;21.00;72.00
20546;DHT22;10431;50.228;9.112;2023-06-14T04:44:46;21.00;72.40
20546;DHT22;10431;50.228;9.112;2023-06-14T04:47:13;21.00;72.20
20546;DHT22;10431;50.228;9.112;2023-06-14T04:49:42;21.10;72.30
20546;DHT22;10431;50.228;9.112;2023-06-14T04:52:08;21.10;72.40
20546;DHT22;10431;50.228;9.112;2023-06-14T04:54:40;21.10;72.50
20546;DHT22;10431;50.228;9.112;2023-06-14T04:57:10;21.00;72.90
20546;DHT22;10431;50.228;9.112;2023-06-14T04:59:44;20.90;73.20
20546;DHT22;10431;50.228;9.112;2023-06-14T05:02:11;21.00;73.20
20546;DHT22;10431;50.228;9.112;2023-06-14T05:04:38;21.00;74.20
20546;DHT22;10431;50.228;9.112;2023-06-14T05:07:08;21.00;73.50
20546;DHT22;10431;50.228;9.112;2023-06-14T05:09:35;21.00;73.40
20546;DHT22;10431;50.228;9.112;2023-06-14T05:12:03;20.90;73.70
20546;DHT22;10431;50.228;9.112;2023-06-14T05:14:29;20.80;74.00
20546;DHT22;10431;50.228;9.112;2023-06-14T05:16:56;20.90;73.90
20546;DHT22;10431;50.228;9.112;2023-06-14T05:19:23;20.50;74.40
20546;DHT22;10431;50.228;9.112;2023-06-14T05:21:49;20.50;74.80
20546;DHT22;10431;50.228;9.112;2023-06-14T05:24:16;20.50;74.50
20546;DHT22;10431;50.228;9.112;2023-06-14T05:26:43;20.60;74.80
20546;DHT22;10431;50.228;9.112;2023-06-14T05:29:10;20.80;74.60
20546;DHT22;10431;50.228;9.112;2023-06-14T05:31:36;21.00;74.30
20546;DHT22;10431;50.228;9.112;2023-06-14T05:34:02;21.00;74.80
20546;DHT22;10431;50.228;9.112;2023-06-14T05:36:29;21.20;73.90
20546;DHT22;10431;50.228;9.112;2023-06-14T05:38:55;21.40;73.60
20546;DHT22;10431;50.228;9.112;2023-06-14T05:41:26;21.40;73.50
20546;DHT22;10431;50.228;9.112;2023-06-14T05:43:54;21.50;73.30
20546;DHT22;10431;50.228;9.112;2023-06-14T05:46:21;21.50;73.30
20546;DHT22;10431;50.228;9.112;2023-06-14T05:48:53;21.40;73.10
20546;DHT22;10431;50.228;9.112;2023-06-14T05:51:21;21.40;73.20
20546;DHT22;10431;50.228;9.112;2023-06-14T05:53:48;21.40;73.20
20546;DHT22;10431;50.228;9.112;2023-06-14T05:56:15;21.40;73.30
20546;DHT22;10431;50.228;9.112;2023-06-14T05:58:44;21.40;73.60
20546;DHT22;10431;50.228;9.112;2023-06-14T06:01:10;21.50;73.40
20546;DHT22;10431;50.228;9.112;2023-06-14T06:03:37;21.40;74.00
20546;DHT22;10431;50.228;9.112;2023-06-14T06:06:03;21.60;73.90
20546;DHT22;10431;50.228;9.112;2023-06-14T06:08:29;21.70;73.70
20546;DHT22;10431;50.228;9.112;2023-06-14T06:10:57;21.80;73.50
20546;DHT22;10431;50.228;9.112;2023-06-14T06:13:23;21.90;73.40
20546;DHT22;10431;50.228;9.112;2023-06-14T06:15:49;21.90;73.50
20546;DHT22;10431;50.228;9.112;2023-06-14T06:18:16;22.00;73.50
20546;DHT22;10431;50.228;9.112;2023-06-14T06:20:43;22.00;73.70
20546;DHT22;10431;50.228;9.112;2023-06-14T06:23:10;22.10;73.70
20546;DHT22;10431;50.228;9.112;2023-06-14T06:25:36;22.10;73.60
20546;DHT22;10431;50.228;9.112;2023-06-14T06:28:03;22.10;73.60
20546;DHT22;10431;50.228;9.112;2023-06-14T06:30:29;22.20;74.00
20546;DHT22;10431;50.228;9.112;2023-06-14T06:32:55;22.20;74.00
20546;DHT22;10431;50.228;9.112;2023-06-14T06:35:21;22.30;74.20
20546;DHT22;10431;50.228;9.112;2023-06-14T06:37:47;22.30;74.20
20546;DHT22;10431;50.228;9.112;2023-06-14T06:40:14;22.40;74.30
20546;DHT22;10431;50.228;9.112;2023-06-14T06:42:40;22.40;74.50
20546;DHT22;10431;50.228;9.112;2023-06-14T06:45:10;22.40;74.40
20546;DHT22;10431;50.228;9.112;2023-06-14T06:47:36;22.40;74.70
20546;DHT22;10431;50.228;9.112;2023-06-14T06:50:03;22.40;74.60
20546;DHT22;10431;50.228;9.112;2023-06-14T06:52:29;22.40;74.80
20546;DHT22;10431;50.228;9.112;2023-06-14T06:54:55;22.50;75.00
20546;DHT22;10431;50.228;9.112;2023-06-14T06:57:23;22.40;75.30
20546;DHT22;10431;50.228;9.112;2023-06-14T06:59:49;22.50;75.30
20546;DHT22;10431;50.228;9.112;2023-06-14T07:02:16;22.50;76.10
20546;DHT22;10431;50.228;9.112;2023-06-14T07:04:42;22.50;75.70
20546;DHT22;10431;50.228;9.112;2023-06-14T07:07:09;22.50;76.20
20546;DHT22;10431;50.228;9.112;2023-06-14T07:09:35;22.50;76.10
20546;DHT22;10431;50.228;9.112;2023-06-14T07:12:02;22.50;76.10
20546;DHT22;10431;50.228;9.112;2023-06-14T07:14:28;22.60;76.30
20546;DHT22;10431;50.228;9.112;2023-06-14T07:16:56;22.50;76.30
20546;DHT22;10431;50.228;9.112;2023-06-14T07:19:22;22.50;76.20
20546;DHT22;10431;50.228;9.112;2023-06-14T07:21:48;22.50;76.20
20546;DHT22;10431;50.228;9.112;2023-06-14T07:24:14;22.50;76.20
20546;DHT22;10431;50.228;9.112;2023-06-14T07:26:41;22.60;76.30
20546;DHT22;10431;50.228;9.112;2023-06-14T07:29:07;22.50;76.20
20546;DHT22;10431;50.228;9.112;2023-06-14T07:31:33;22.50;76.30
20546;DHT22;10431;50.228;9.112;2023-06-14T07:34:00;22.50;76.30
20546;DHT22;10431;50.228;9.112;2023-06-14T07:36:26;22.50;76.20
20546;DHT22;10431;50.228;9.112;2023-06-14T07:38:52;22.50;76.20
20546;DHT22;10431;50.228;9.112;2023-06-14T07:41:18;22.60;76.30
20546;DHT22;10431;50.228;9.112;2023-06-14T07:43:44;22.60;76.20
20546;DHT22;10431;50.228;9.112;2023-06-14T07:46:11;22.60;76.10
20546;DHT22;10431;50.228;9.112;2023-06-14T07:48:37;22.60;76.20
20546;DHT22;10431;50.228;9.112;2023-06-14T07:51:03;22.60;76.80
20546;DHT22;10431;50.228;9.112;2023-06-14T07:53:30;22.60;76.90
20546;DHT22;10431;50.228;9.112;2023-06-14T07:55:57;22.60;77.30
20546;DHT22;10431;50.228;9.112;2023-06-14T07:58:23;22.60;77.50
20546;DHT22;10431;50.228;9.112;2023-06-14T08:00:49;22.60;77.70
20546;DHT22;10431;50.228;9.112;2023-06-14T08:03:15;22.70;78.20
20546;DHT22;10431;50.228;9.112;2023-06-14T08:05:42;22.70;77.40
20546;DHT22;10431;50.228;9.112;2023-06-14T08:08:08;22.60;78.40
20546;DHT22;10431;50.228;9.112;2023-06-14T08:10:35;22.70;78.20
20546;DHT22;10431;50.228;9.112;2023-06-14T08:13:01;22.70;77.90
20546;DHT22;10431;50.228;9.112;2023-06-14T08:15:27;22.70;77.80
20546;DHT22;10431;50.228;9.112;2023-06-14T08:17:53;22.70;77.80
20546;DHT22;10431;50.228;9.112;2023-06-14T08:20:19;22.70;77.90
20546;DHT22;10431;50.228;9.112;2023-06-14T08:22:45;22.70;78.20
20546;DHT22;10431;50.228;9.112;2023-06-14T08:25:14;22.70;77.50
20546;DHT22;10431;50.228;9.112;2023-06-14T08:27:40;22.50;74.70
20546;DHT22;10431;50.228;9.112;2023-06-14T08:30:07;22.50;76.10
20546;DHT22;10431;50.228;9.112;2023-06-14T08:32:34;22.50;75.40
20546;DHT22;10431;50.228;9.112;2023-06-14T08:35:00;22.50;76.30
20546;DHT22;10431;50.228;9.112;2023-06-14T08:37:26;22.50;76.70
20546;DHT22;10431;50.228;9.112;2023-06-14T08:39:53;22.50;76.40
20546;DHT22;10431;50.228;9.112;2023-06-14T08:42:21;22.60;75.20
20546;DHT22;10431;50.228;9.112;2023-06-14T08:44:49;22.50;75.20
20546;DHT22;10431;50.228;9.112;2023-06-14T08:47:16;22.50;75.00
20546;DHT22;10431;50.228;9.112;2023-06-14T08:49:46;22.50;75.10
20546;DHT22;10431;50.228;9.112;2023-06-14T08:52:13;22.50;75.80
20546;DHT22;10431;50.228;9.112;2023-06-14T08:54:41;22.50;75.90
20546;DHT22;10431;50.228;9.112;2023-06-14T08:57:11;22.50;74.90
20546;DHT22;10431;50.228;9.112;2023-06-14T08:59:46;22.50;75.50
20546;DHT22;10431;50.228;9.112;2023-06-14T09:02:15;22.50;75.50
20546;DHT22;10431;50.228;9.112;2023-06-14T09:04:44;22.50;75.00
20546;DHT22;10431;50.228;9.112;2023-06-14T09:07:11;22.60;75.30
20546;DHT22;10431;50.228;9.112;2023-06-14T09:09:39;22.60;75.40
20546;DHT22;10431;50.228;9.112;2023-06-14T09:12:08;22.60;75.70
20546;DHT22;10431;50.228;9.112;2023-06-14T09:14:36;22.60;75.50
20546;DHT22;10431;50.228;9.112;2023-06-14T09:17:05;22.60;75.50
20546;DHT22;10431;50.228;9.112;2023-06-14T09:19:31;22.60;75.50
20546;DHT22;10431;50.228;9.112;2023-06-14T09:21:57;22.60;75.50
20546;DHT22;10431;50.228;9.112;2023-06-14T09:24:26;22.60;75.50
20546;DHT22;10431;50.228;9.112;2023-06-14T09:26:53;22.60;74.30
20546;DHT22;10431;50.228;9.112;2023-06-14T09:29:19;22.60;75.40
20546;DHT22;10431;50.228;9.112;2023-06-14T09:31:47;22.60;75.40
20546;DHT22;10431;50.228;9.112;2023-06-14T09:34:13;22.60;75.90
20546;DHT22;10431;50.228;9.112;2023-06-14T09:36:42;22.60;76.20
20546;DHT22;10431;50.228;9.112;2023-06-14T09:39:08;22.70;76.30
20546;DHT22;10431;50.228;9.112;2023-06-14T09:41:40;22.60;76.40
20546;DHT22;10431;50.228;9.112;2023-06-14T09:44:07;22.70;76.40
20546;DHT22;10431;50.228;9.112;2023-06-14T09:46:35;22.70;76.50
20546;DHT22;10431;50.228;9.112;2023-06-14T09:49:02;22.70;76.60
20546;DHT22;10431;50.228;9.112;2023-06-14T09:51:28;22.60;76.70
20546;DHT22;10431;50.228;9.112;2023-06-14T09:54:02;22.60;76.60
20546;DHT22;10431;50.228;9.112;2023-06-14T09:56:33;22.70;76.60
20546;DHT22;10431;50.228;9.112;2023-06-14T09:59:04;22.70;76.60
20546;DHT22;10431;50.228;9.112;2023-06-14T10:01:31;22.70;76.60
20546;DHT22;10431;50.228;9.112;2023-06-14T10:04:03;22.70;76.60
20546;DHT22;10431;50.228;9.112;2023-06-14T10:06:30;22.70;76.60
20546;DHT22;10431;50.228;9.112;2023-06-14T10:08:59;22.70;76.60
20546;DHT22;10431;50.228;9.112;2023-06-14T10:11:26;22.70;76.60
20546;DHT22;10431;50.228;9.112;2023-06-14T10:13:57;22.70;77.40
20546;DHT22;10431;50.228;9.112;2023-06-14T10:16:32;22.70;76.70
20546;DHT22;10431;50.228;9.112;2023-06-14T10:24:37;22.70;77.00
20546;DHT22;10431;50.228;9.112;2023-06-14T10:27:06;22.70;77.20
20546;DHT22;10431;50.228;9.112;2023-06-14T10:32:22;22.80;77.00
20546;DHT22;10431;50.228;9.112;2023-06-14T10:35:11;22.80;76.40
20546;DHT22;10431;50.228;9.112;2023-06-14T10:37:41;22.80;77.10
20546;DHT22;10431;50.228;9.112;2023-06-14T10:40:08;22.80;77.20
20546;DHT22;10431;50.228;9.112;2023-06-14T10:42:37;22.80;77.30
20546;DHT22;10431;50.228;9.112;2023-06-14T10:45:04;22.80;77.00
20546;DHT22;10431;50.228;9.112;2023-06-14T10:47:34;22.80;77.20
20546;DHT22;10431;50.228;9.112;2023-06-14T10:50:09;22.80;77.20
20546;DHT22;10431;50.228;9.112;2023-06-14T10:52:43;22.80;77.20
20546;DHT22;10431;50.228;9.112;2023-06-14T10:55:16;22.80;78.30
20546;DHT22;10431;50.228;9.112;2023-06-14T10:57:47;22.80;77.60
20546;DHT22;10431;50.228;9.112;2023-06-14T11:00:20;22.80;78.20
20546;DHT22;10431;50.228;9.112;2023-06-14T11:05:53;22.80;78.70
20546;DHT22;10431;50.228;9.112;2023-06-14T11:08:27;22.80;78.40
20546;DHT22;10431;50.228;9.112;2023-06-14T11:10:59;22.70;77.50
20546;DHT22;10431;50.228;9.112;2023-06-14T11:13:26;22.70;79.50
20546;DHT22;10431;50.228;9.112;2023-06-14T11:15:53;22.80;81.50
20546;DHT22;10431;50.228;9.112;2023-06-14T11:18:21;22.80;82.20
20546;DHT22;10431;50.228;9.112;2023-06-14T11:20:50;22.80;83.10
20546;DHT22;10431;50.228;9.112;2023-06-14T11:23:16;22.80;82.50
20546;DHT22;10431;50.228;9.112;2023-06-14T11:25:43;22.80;81.90
20546;DHT22;10431;50.228;9.112;2023-06-14T11:28:09;22.80;82.60
20546;DHT22;10431;50.228;9.112;2023-06-14T11:30:35;22.80;83.20
20546;DHT22;10431;50.228;9.112;2023-06-14T11:33:02;22.80;82.60
20546;DHT22;10431;50.228;9.112;2023-06-14T11:35:28;22.80;82.80
20546;DHT22;10431;50.228;9.112;2023-06-14T11:37:57;22.80;82.70
20546;DHT22;10431;50.228;9.112;2023-06-14T11:40:25;22.80;83.00
20546;DHT22;10431;50.228;9.112;2023-06-14T11:42:58;22.80;83.00
20546;DHT22;10431;50.228;9.112;2023-06-14T11:45:25;22.80;83.10
20546;DHT22;10431;50.228;9.112;2023-06-14T11:47:55;22.80;83.30
20546;DHT22;10431;50.228;9.112;2023-06-14T11:50:22;22.80;83.40
20546;DHT22;10431;50.228;9.112;2023-06-14T11:52:56;22.90;83.30
20546;DHT22;10431;50.228;9.112;2023-06-14T11:55:23;22.90;83.10
20546;DHT22;10431;50.228;9.112;2023-06-14T11:57:50;22.90;79.90
20546;DHT22;10431;50.228;9.112;2023-06-14T12:00:17;22.90;80.00
20546;DHT22;10431;50.228;9.112;2023-06-14T12:02:52;22.80;75.20
20546;DHT22;10431;50.228;9.112;2023-06-14T12:05:21;22.80;75.30
20546;DHT22;10431;50.228;9.112;2023-06-14T12:07:47;22.70;73.80
20546;DHT22;10431;50.228;9.112;2023-06-14T12:10:14;22.70;74.80
20546;DHT22;10431;50.228;9.112;2023-06-14T12:12:41;22.60;72.60
20546;DHT22;10431;50.228;9.112;2023-06-14T12:15:09;22.60;74.70
20546;DHT22;10431;50.228;9.112;2023-06-14T12:17:38;22.70;73.70
20546;DHT22;10431;50.228;9.112;2023-06-14T12:20:12;22.70;80.00
20546;DHT22;10431;50.228;9.112;2023-06-14T12:22:52;22.80;79.10
20546;DHT22;10431;50.228;9.112;2023-06-14T12:27:58;22.90;75.20
20546;DHT22;10431;50.228;9.112;2023-06-14T12:30:24;22.90;74.60
20546;DHT22;10431;50.228;9.112;2023-06-14T12:32:51;22.80;76.20
20546;DHT22;10431;50.228;9.112;2023-06-14T12:35:19;22.80;77.70
20546;DHT22;10431;50.228;9.112;2023-06-14T12:37:46;22.80;78.20
20546;DHT22;10431;50.228;9.112;2023-06-14T12:40:13;22.80;76.50
20546;DHT22;10431;50.228;9.112;2023-06-14T12:42:40;22.80;78.80
20546;DHT22;10431;50.228;9.112;2023-06-14T12:45:07;22.80;76.60
20546;DHT22;10431;50.228;9.112;2023-06-14T12:47:33;22.80;78.90
20546;DHT22;10431;50.228;9.112;2023-06-14T12:50:01;22.80;74.60
20546;DHT22;10431;50.228;9.112;2023-06-14T12:52:27;22.80;77.10
20546;DHT22;10431;50.228;9.112;2023-06-14T12:54:53;22.80;75.80
20546;DHT22;10431;50.228;9.112;2023-06-14T12:57:20;22.80;77.90
20546;DHT22;10431;50.228;9.112;2023-06-14T12:59:46;22.80;77.80
20546;DHT22;10431;50.228;9.112;2023-06-14T13:02:17;22.80;77.90
20546;DHT22;10431;50.228;9.112;2023-06-14T13:04:44;22.80;78.40
20546;DHT22;10431;50.228;9.112;2023-06-14T13:07:11;22.80;77.40
20546;DHT22;10431;50.228;9.112;2023-06-14T13:09:37;22.80;77.10
20546;DHT22;10431;50.228;9.112;2023-06-14T13:12:04;22.80;77.20
20546;DHT22;10431;50.228;9.112;2023-06-14T13:14:31;22.80;76.70
20546;DHT22;10431;50.228;9.112;2023-06-14T13:16:58;22.80;77.60
20546;DHT22;10431;50.228;9.112;2023-06-14T13:19:24;22.80;78.30
20546;DHT22;10431;50.228;9.112;2023-06-14T13:21:50;22.80;78.40
20546;DHT22;10431;50.228;9.112;2023-06-14T13:24:17;22.80;78.90
20546;DHT22;10431;50.228;9.112;2023-06-14T13:26:43;22.80;78.50
20546;DHT22;10431;50.228;9.112;2023-06-14T13:29:09;22.80;77.60
20546;DHT22;10431;50.228;9.112;2023-06-14T13:31:35;22.80;78.20
20546;DHT22;10431;50.228;9.112;2023-06-14T13:34:02;22.80;78.40
20546;DHT22;10431;50.228;9.112;2023-06-14T13:36:28;22.90;78.20
20546;DHT22;10431;50.228;9.112;2023-06-14T13:38:56;22.90;77.90
20546;DHT22;10431;50.228;9.112;2023-06-14T13:41:22;22.90;77.90
20546;DHT22;10431;50.228;9.112;2023-06-14T13:43:48;22.90;78.00
20546;DHT22;10431;50.228;9.112;2023-06-14T13:46:14;22.90;78.20
20546;DHT22;10431;50.228;9.112;2023-06-14T13:48:41;22.90;78.20
20546;DHT22;10431;50.228;9.112;2023-06-14T13:51:07;22.90;78.30
20546;DHT22;10431;50.228;9.112;2023-06-14T13:53:33;22.90;78.40
20546;DHT22;10431;50.228;9.112;2023-06-14T13:55:59;22.90;78.50
20546;DHT22;10431;50.228;9.112;2023-06-14T13:58:25;22.80;78.30
20546;DHT22;10431;50.228;9.112;2023-06-14T14:00:51;22.90;78.50
20546;DHT22;10431;50.228;9.112;2023-06-14T14:03:18;22.90;78.50
20546;DHT22;10431;50.228;9.112;2023-06-14T14:05:45;22.90;78.50
20546;DHT22;10431;50.228;9.112;2023-06-14T14:08:11;22.90;78.50
20546;DHT22;10431;50.228;9.112;2023-06-14T14:10:37;22.90;78.50
20546;DHT22;10431;50.228;9.112;2023-06-14T14:13:04;22.90;78.50
20546;DHT22;10431;50.228;9.112;2023-06-14T14:15:30;22.80;78.50
20546;DHT22;10431;50.228;9.112;2023-06-14T14:17:56;22.90;78.70
20546;DHT22;10431;50.228;9.112;2023-06-14T14:20:23;22.90;78.70
20546;DHT22;10431;50.228;9.112;2023-06-14T14:22:49;22.90;78.80
20546;DHT22;10431;50.228;9.112;2023-06-14T14:25:15;22.90;79.00
20546;DHT22;10431;50.228;9.112;2023-06-14T14:27:42;22.90;79.00
20546;DHT22;10431;50.228;9.112;2023-06-14T14:30:08;22.90;79.00
20546;DHT22;10431;50.228;9.112;2023-06-14T14:32:35;22.90;79.10
20546;DHT22;10431;50.228;9.112;2023-06-14T14:35:01;22.90;79.10
20546;DHT22;10431;50.228;9.112;2023-06-14T14:37:27;22.90;79.00
20546;DHT22;10431;50.228;9.112;2023-06-14T14:39:53;22.90;78.00
20546;DHT22;10431;50.228;9.112;2023-06-14T14:42:20;22.90;78.40
20546;DHT22;10431;50.228;9.112;2023-06-14T14:44:46;23.00;79.20
20546;DHT22;10431;50.228;9.112;2023-06-14T14:47:12;23.00;79.20
20546;DHT22;10431;50.228;9.112;2023-06-14T14:49:38;22.90;79.30
20546;DHT22;10431;50.228;9.112;2023-06-14T14:52:05;23.00;79.40
20546;DHT22;10431;50.228;9.112;2023-06-14T14:54:31;22.90;79.40
20546;DHT22;10431;50.228;9.112;2023-06-14T14:56:57;23.00;79.70
20546;DHT22;10431;50.228;9.112;2023-06-14T14:59:23;22.90;79.70
20546;DHT22;10431;50.228;9.112;2023-06-14T15:01:50;22.90;79.80
20546;DHT22;10431;50.228;9.112;2023-06-14T15:04:16;22.90;79.70
20546;DHT22;10431;50.228;9.112;2023-06-14T15:06:42;22.90;79.60
20546;DHT22;10431;50.228;9.112;2023-06-14T15:09:09;22.90;79.60
20546;DHT22;10431;50.228;9.112;2023-06-14T15:11:35;22.90;78.60
20546;DHT22;10431;50.228;9.112;2023-06-14T15:14:01;22.90;78.40
20546;DHT22;10431;50.228;9.112;2023-06-14T15:16:28;22.90;78.60
20546;DHT22;10431;50.228;9.112;2023-06-14T15:18:54;22.90;76.50
20546;DHT22;10431;50.228;9.112;2023-06-14T15:21:20;22.90;75.20
20546;DHT22;10431;50.228;9.112;2023-06-14T15:23:48;22.90;74.80
20546;DHT22;10431;50.228;9.112;2023-06-14T15:26:14;23.00;75.40
20546;DHT22;10431;50.228;9.112;2023-06-14T15:28:41;23.00;75.60
20546;DHT22;10431;50.228;9.112;2023-06-14T15:31:07;23.00;76.40
20546;DHT22;10431;50.228;9.112;2023-06-14T15:33:33;23.00;74.10
20546;DHT22;10431;50.228;9.112;2023-06-14T15:35:59;23.00;72.70
20546;DHT22;10431;50.228;9.112;2023-06-14T15:38:26;23.00;73.00
20546;DHT22;10431;50.228;9.112;2023-06-14T15:40:52;23.00;72.20
20546;DHT22;10431;50.228;9.112;2023-06-14T15:43:18;23.00;73.80
20546;DHT22;10431;50.228;9.112;2023-06-14T15:45:44;23.00;76.10
20546;DHT22;10431;50.228;9.112;2023-06-14T15:48:11;23.00;77.40
20546;DHT22;10431;50.228;9.112;2023-06-14T15:50:37;23.00;78.10